Time;durP1;ratioP1;P1;durP2;ratioP2;P2;SDS_P1;SDS_P2;PMS_P1;PMS_P2;Temp;Humidity;BMP_temperature;BMP_pressure;BME280_temperature;BME280_humidity;BME280_pressure;Samples;Min_cycle;Max_cycle;Signal;HPM_P1;HPM_P2
2022/06/07 00:01:55;;;;;;;5.33;4.57;;;;;;;17.25;100.00;100462.23;4971909;59;1141151;-72
2022/06/07 00:07:02;;;;;;;4.37;3.87;;;;;;;17.34;100.00;100464.41;5066981;57;1141063;-73
2022/06/07 00:12:08;;;;;;;5.33;3.37;;;;;;;17.42;100.00;100457.73;5107201;57;1141427;-72
2022/06/07 00:17:14;;;;;;;4.33;3.93;;;;;;;17.44;100.00;100449.04;5168230;56;1141433;-72
2022/06/07 00:22:20;;;;;;;8.63;4.30;;;;;;;17.43;100.00;100441.52;5155660;57;1141013;-72
2022/06/07 00:27:26;;;;;;;13.60;4.23;;;;;;;17.48;100.00;100440.53;5155713;56;1141095;-72
2022/06/07 00:32:34;;;;;;;3.87;2.87;;;;;;;17.41;99.50;100434.69;5155729;56;1141045;-72
2022/06/07 00:37:40;;;;;;;3.70;2.90;;;;;;;17.35;99.67;100435.34;5155787;57;1136913;-72
2022/06/07 00:42:46;;;;;;;3.13;2.93;;;;;;;17.28;99.40;100433.81;5167091;56;1137408;-72
2022/06/07 00:47:52;;;;;;;5.57;3.00;;;;;;;17.10;99.40;100439.80;5242271;55;1137377;-72
2022/06/07 00:52:59;;;;;;;3.87;3.50;;;;;;;16.99;99.54;100429.39;5242993;55;1137131;-72
2022/06/07 00:58:05;;;;;;;5.03;3.90;;;;;;;16.86;99.62;100434.70;5181818;55;1136943;-72
2022/06/07 01:03:12;;;;;;;4.60;3.57;;;;;;;16.73;100.00;100445.50;5156141;56;1137023;-72
2022/06/07 01:13:45;;;;;;;3.87;3.60;;;;;;;16.38;100.00;100442.45;5127531;56;1138884;-72
2022/06/07 01:18:52;;;;;;;4.30;3.90;;;;;;;16.32;100.00;100441.77;5211265;56;1138958;-72
2022/06/07 01:24:02;;;;;;;7.07;4.70;;;;;;;16.26;100.00;100434.38;5220452;56;1138875;-72
2022/06/07 01:29:13;;;;;;;4.10;3.70;;;;;;;16.21;100.00;100433.50;5125528;57;1136958;-72
2022/06/07 01:34:20;;;;;;;12.37;4.30;;;;;;;16.18;100.00;100439.18;5145935;57;21196;-72
2022/06/07 01:44:51;;;;;;;6.67;5.30;;;;;;;15.99;100.00;100443.38;5143764;56;1141167;-73
2022/06/07 01:49:58;;;;;;;5.20;4.80;;;;;;;15.94;100.00;100436.33;5158419;56;1141044;-72
2022/06/07 01:55:07;;;;;;;8.10;6.03;;;;;;;15.89;100.00;100450.64;5140132;57;1141050;-72
2022/06/07 02:00:15;;;;;;;15.17;8.57;;;;;;;15.76;100.00;100446.52;5125777;57;1140995;-72
2022/06/07 02:05:22;;;;;;;33.53;10.60;;;;;;;15.70;100.00;100448.98;5088761;57;1143600;-73
2022/06/07 02:10:30;;;;;;;11.47;9.47;;;;;;;15.68;100.00;100449.63;5127852;57;1145224;-72
2022/06/07 02:15:37;;;;;;;24.13;12.10;;;;;;;15.69;100.00;100444.14;5138139;57;1142456;-72
2022/06/07 02:20:44;;;;;;;18.03;12.17;;;;;;;15.72;100.00;100449.17;5197358;56;1145634;-72
2022/06/07 02:25:54;;;;;;;14.63;13.00;;;;;;;15.74;100.00;100446.33;5228642;56;1145246;-72
2022/06/07 02:31:00;;;;;;;16.40;13.80;;;;;;;15.75;100.00;100444.00;5228696;56;1145282;-73
2022/06/07 02:36:08;;;;;;;17.47;12.73;;;;;;;15.74;100.00;100446.33;5228665;56;1145204;-72
2022/06/07 02:41:18;;;;;;;19.57;13.20;;;;;;;15.78;100.00;100443.20;5228645;55;1145509;-73
2022/06/07 02:46:24;;;;;;;23.20;13.23;;;;;;;15.85;100.00;100436.77;5228538;56;1145272;-72
2022/06/07 02:51:31;;;;;;;22.70;12.43;;;;;;;15.85;100.00;100439.94;5196228;56;1145244;-72
2022/06/07 02:56:38;;;;;;;16.77;11.33;;;;;;;15.86;100.00;100447.78;5177960;56;1145428;-72
2022/06/07 03:01:45;;;;;;;14.93;10.97;;;;;;;15.87;100.00;100443.29;5228398;56;1145177;-72
2022/06/07 03:06:51;;;;;;;15.23;13.60;;;;;;;15.82;100.00;100440.58;5228430;56;1145234;-72
2022/06/07 03:11:57;;;;;;;24.03;14.60;;;;;;;15.81;100.00;100440.73;5232164;55;1145279;-72
2022/06/07 03:17:04;;;;;;;20.60;13.47;;;;;;;15.89;100.00;100449.31;5226616;55;1145458;-73
2022/06/07 03:22:14;;;;;;;26.43;14.90;;;;;;;15.89;100.00;100449.31;5240084;55;1145142;-72
2022/06/07 03:27:20;;;;;;;26.27;15.30;;;;;;;15.86;100.00;100438.95;5232788;55;1145153;-72
2022/06/07 03:32:26;;;;;;;22.83;16.33;;;;;;;15.97;100.00;100444.02;5242250;55;1145317;-72
2022/06/07 03:37:34;;;;;;;18.10;15.07;;;;;;;15.96;100.00;100447.69;5242366;55;1145475;-72
2022/06/07 03:42:41;;;;;;;22.63;15.33;;;;;;;15.92;100.00;100459.15;5242302;55;1145339;-72
2022/06/07 03:47:47;;;;;;;36.37;16.97;;;;;;;15.87;100.00;100463.30;5212524;56;1145258;-73
2022/06/07 03:52:55;;;;;;;21.57;15.00;;;;;;;15.89;100.00;100458.64;5155780;57;1145143;-73
2022/06/07 03:58:02;;;;;;;16.67;13.87;;;;;;;15.98;100.00;100451.03;5124029;57;1145145;-72
2022/06/07 04:03:09;;;;;;;13.67;10.53;;;;;;;16.05;100.00;100451.58;5130217;57;1145384;-72
2022/06/07 04:08:16;;;;;;;16.17;11.87;;;;;;;16.14;100.00;100463.16;5155737;57;1143097;-72
2022/06/07 04:13:29;;;;;;;13.50;11.47;;;;;;;16.13;100.00;100462.81;5131757;56;1143141;-72
2022/06/07 04:18:37;;;;;;;14.50;10.73;;;;;;;16.11;100.00;100462.13;5192564;56;1143156;-72
2022/06/07 04:23:44;;;;;;;9.80;8.77;;;;;;;16.15;100.00;100470.17;5200167;56;1143259;-72
2022/06/07 04:28:51;;;;;;;9.23;8.43;;;;;;;16.13;100.00;100476.16;5195819;57;1138976;-72
2022/06/07 04:33:59;;;;;;;10.23;8.47;;;;;;;16.11;100.00;100472.31;5160797;57;1139159;-72
2022/06/07 04:39:07;;;;;;;6.93;6.33;;;;;;;16.13;100.00;100475.66;5195783;57;1141131;-72
2022/06/07 04:44:20;;;;;;;5.80;4.43;;;;;;;16.13;100.00;100485.50;5210124;56;1139272;-72
2022/06/07 04:49:29;;;;;;;6.70;6.10;;;;;;;16.10;100.00;100490.64;5132381;57;1139011;-72
2022/06/07 04:54:35;;;;;;;5.60;5.10;;;;;;;16.11;100.00;100486.14;5093627;56;1139108;-72
2022/06/07 04:59:42;;;;;;;6.17;5.53;;;;;;;16.14;100.00;100481.84;5098096;57;1139097;-72
2022/06/07 05:04:48;;;;;;;5.93;5.43;;;;;;;16.14;100.00;100477.84;5126621;57;1139062;-72
2022/06/07 05:09:56;;;;;;;6.63;6.07;;;;;;;16.11;100.00;100468.31;5136850;56;1137153;-72
2022/06/07 05:15:06;;;;;;;10.23;8.30;;;;;;;16.25;100.00;100476.73;5136551;57;1137194;-72
2022/06/07 05:20:13;;;;;;;11.17;7.20;;;;;;;16.31;100.00;100476.96;5156541;56;1143067;-73
2022/06/07 05:25:20;;;;;;;10.63;8.77;;;;;;;16.43;100.00;100476.19;5228700;56;1143066;-72
2022/06/07 05:30:27;;;;;;;8.67;7.07;;;;;;;16.57;100.00;100484.95;5189776;56;1142618;-72
2022/06/07 05:35:38;;;;;;;12.10;9.30;;;;;;;16.73;100.00;100490.41;5226752;56;1141069;-72
2022/06/07 05:40:45;;;;;;;10.00;8.97;;;;;;;16.94;100.00;100472.65;5224596;56;1143125;-72
2022/06/07 05:45:55;;;;;;;9.07;8.17;;;;;;;17.08;100.00;100475.20;5223889;56;1143109;-72
2022/06/07 05:51:03;;;;;;;8.80;6.93;;;;;;;17.30;100.00;100479.09;5215896;56;1140942;-72
2022/06/07 05:56:13;;;;;;;13.60;8.73;;;;;;;17.52;100.00;100477.15;5133648;56;1141031;-73
2022/06/07 06:01:20;;;;;;;12.27;8.20;;;;;;;17.53;100.00;100480.16;4981603;58;1143379;-72
2022/06/07 06:06:27;;;;;;;15.63;7.63;;;;;;;17.54;100.00;100487.19;4912807;59;1143191;-72
2022/06/07 06:11:35;;;;;;;10.83;8.73;;;;;;;17.48;100.00;100497.19;5079046;58;1143152;-72
2022/06/07 06:16:48;;;;;;;10.37;7.67;;;;;;;17.39;100.00;100494.17;5068586;57;1143413;-72
2022/06/07 06:21:55;;;;;;;12.47;8.10;;;;;;;17.35;100.00;100500.34;5159313;56;1143189;-72
2022/06/07 06:27:02;;;;;;;10.30;7.87;;;;;;;17.63;100.00;100493.37;5227439;56;1143397;-72
2022/06/07 06:32:10;;;;;;;7.30;6.60;;;;;;;17.92;100.00;100491.08;5190827;56;1143156;-72
2022/06/07 06:37:18;;;;;;;9.53;7.50;;;;;;;18.20;100.00;100488.89;5160361;56;1141095;-72
2022/06/07 06:42:24;;;;;;;17.37;8.60;;;;;;;18.21;100.00;100499.43;5189430;56;1141070;-72
2022/06/07 06:47:41;;;;;;;6.70;6.10;;;;;;;18.24;100.00;100504.45;5097785;57;1143145;-72
2022/06/07 06:52:48;;;;;;;9.88;6.20;;;;;;;18.28;100.00;100512.99;5094106;57;1141080;-72
2022/06/07 06:57:56;;;;;;;7.28;5.67;;;;;;;18.30;100.00;100527.55;5218858;55;1140955;-72
2022/06/07 07:03:02;;;;;;;9.28;4.58;;;;;;;18.41;100.00;100519.16;5273526;55;1141110;-72
2022/06/07 07:08:10;;;;;;;6.40;5.90;;;;;;;18.49;100.00;100519.98;5172546;56;1141287;-72
2022/06/07 07:13:16;;;;;;;8.20;5.83;;;;;;;18.53;100.00;100509.77;5132461;57;1140365;-72
2022/06/07 07:18:22;;;;;;;6.47;5.87;;;;;;;18.53;100.00;100507.92;5166383;56;1141084;-72
2022/06/07 07:23:30;;;;;;;6.50;5.87;;;;;;;18.73;100.00;100506.24;5229545;56;1141040;-72
2022/06/07 07:28:38;;;;;;;7.42;6.70;;;;;;;19.11;100.00;100491.17;5221471;56;1141088;-72
2022/06/07 07:33:45;;;;;;;6.37;5.78;;;;;;;19.35;100.00;100499.11;5195220;56;1141290;-72
2022/06/07 07:38:51;;;;;;;8.78;5.33;;;;;;;19.45;100.00;100495.69;5221920;56;1141234;-72
2022/06/07 07:44:00;;;;;;;9.53;6.37;;;;;;;19.67;100.00;100499.45;5229457;56;1138985;-73
2022/06/07 07:49:08;;;;;;;6.10;5.58;;;;;;;19.72;100.00;100495.70;5250478;55;1139088;-72
2022/06/07 07:54:18;;;;;;;8.20;5.40;;;;;;;19.92;100.00;100504.95;5179888;56;1139042;-73
2022/06/07 07:59:26;;;;;;;6.10;5.55;;;;;;;20.19;100.00;100508.92;5190633;56;1139254;-72
2022/06/07 08:04:33;;;;;;;5.83;5.03;;;;;;;20.31;100.00;100513.37;5242569;56;1138939;-73
2022/06/07 08:09:40;;;;;;;5.95;3.70;;;;;;;20.44;100.00;100509.58;5155937;57;1139035;-73
2022/06/07 08:14:48;;;;;;;5.02;4.62;;;;;;;20.53;97.14;100519.72;5083292;56;1139031;-73
2022/06/07 08:19:54;;;;;;;6.08;4.45;;;;;;;20.56;97.81;100517.50;5035451;58;1136972;-72
2022/06/07 08:25:00;;;;;;;6.28;4.78;;;;;;;20.92;100.00;100518.97;5215848;56;1136900;-73
2022/06/07 08:30:07;;;;;;;3.83;3.40;;;;;;;21.29;100.00;100509.11;5215944;56;1139218;-72
2022/06/07 08:40:45;;;;;;;6.83;3.75;;;;;;;21.43;93.63;100510.92;5126970;57;1134957;-73
2022/06/07 08:45:52;;;;;;;5.10;3.33;;;;;;;21.45;94.79;100502.67;5195033;56;1138935;-72
2022/06/07 08:51:22;;;;;;;5.23;4.07;;;;;;;21.57;93.19;100497.94;5196663;56;1139127;-72
2022/06/07 08:56:32;;;;;;;5.40;3.65;;;;;;;21.65;88.87;100490.27;5167311;56;1138963;-72
2022/06/07 09:01:51;;;;;;;4.83;4.25;;;;;;;21.77;92.17;100486.03;5130606;57;1139007;-72
2022/06/07 09:07:04;;;;;;;4.84;4.44;;;;;;;22.02;92.62;100493.22;5229282;56;1139016;-72
2022/06/07 09:12:20;;;;;;;3.83;3.52;;;;;;;22.22;92.21;100486.16;5245089;56;1139041;-73
2022/06/07 09:17:42;;;;;;;4.77;4.37;;;;;;;22.20;85.12;100483.33;5233829;56;1138985;-73
2022/06/07 09:23:01;;;;;;;4.33;4.03;;;;;;;22.29;90.22;100474.09;5147393;57;1138999;-72
2022/06/07 09:28:12;;;;;;;5.32;3.64;;;;;;;22.64;91.25;100469.53;5151825;57;1139008;-72
2022/06/07 09:33:36;;;;;;;4.45;3.40;;;;;;;22.97;90.31;100462.48;5150049;57;1139196;-73
2022/06/07 09:38:49;;;;;;;3.20;3.00;;;;;;;23.25;89.03;100461.02;5149023;57;1138983;-72
2022/06/07 09:43:59;;;;;;;4.65;3.65;;;;;;;23.30;83.26;100454.51;5154867;57;1139034;-72
2022/06/07 09:49:06;;;;;;;11.00;3.17;;;;;;;23.21;81.85;100453.55;5160585;57;1138987;-72
2022/06/07 09:54:20;;;;;;;4.17;2.90;;;;;;;23.39;84.25;100445.17;5159518;57;1141126;-72
2022/06/07 09:59:39;;;;;;;3.92;3.08;;;;;;;23.61;83.87;100443.70;5160702;57;1137186;-72
2022/06/07 10:05:23;;;;;;;6.47;3.90;;;;;;;23.67;81.19;100436.97;5160755;57;1136900;-74
2022/06/07 10:10:40;;;;;;;;;;;;;;;23.82;80.35;100440.83;5164354;57;1137121;-74
2022/06/07 10:15:53;;;;;;;3.45;3.25;;;;;;;23.95;79.65;100431.38;5078047;58;974322;-73
2022/06/07 10:21:23;;;;;;;3.25;3.00;;;;;;;24.02;78.56;100429.48;5088876;57;1132736;-74
2022/06/07 10:26:39;;;;;;;2.63;2.43;;;;;;;23.97;72.98;100427.11;5097310;57;1138944;-73
2022/06/07 10:31:55;;;;;;;5.25;2.92;;;;;;;23.84;68.24;100419.30;5158118;57;1139098;-73
2022/06/07 10:37:21;;;;;;;2.85;2.65;;;;;;;23.76;69.38;100424.92;5158122;57;1139006;-74
2022/06/07 10:42:45;;;;;;;2.22;2.12;;;;;;;23.72;72.20;100419.61;5164184;56;1139209;-74
2022/06/07 10:48:06;;;;;;;2.42;2.33;;;;;;;23.74;65.91;100415.36;5244663;56;1139014;-73
2022/06/07 10:53:33;;;;;;;2.65;2.45;;;;;;;23.68;67.76;100410.25;5244641;56;1139137;-73
2022/06/07 10:58:46;;;;;;;3.42;2.50;;;;;;;23.74;68.51;100414.01;5244264;56;1139281;-72
2022/06/07 11:09:19;;;;;;;2.65;2.45;;;;;;;23.74;68.77;100402.69;5244924;56;1139117;-74
2022/06/07 11:09:58;;;;;;;2.20;2.10;;;;;;;23.77;69.33;100388.77;5237908;56;1138977;-75
2022/06/07 11:15:26;;;;;;;2.95;2.70;;;;;;;23.82;69.82;100387.64;5224072;56;1137187;-74
2022/06/07 11:20:36;;;;;;;5.33;2.80;;;;;;;23.92;68.45;100380.45;5217032;56;1136884;-73
2022/06/07 11:26:15;;;;;;;3.70;1.92;;;;;;;23.95;67.80;100383.27;5223884;56;1136930;-73
2022/06/07 11:31:39;;;;;;;2.42;2.05;;;;;;;23.96;68.02;100387.11;5165525;56;1134813;-74
2022/06/07 11:36:45;;;;;;;2.45;2.35;;;;;;;23.92;67.10;100390.42;5157966;57;1139041;-73
2022/06/07 11:42:01;;;;;;;2.37;2.17;;;;;;;23.85;66.80;100393.95;5158098;57;1139000;-73
2022/06/07 11:47:14;;;;;;;11.85;2.83;;;;;;;23.74;65.13;100391.89;5148968;57;1139169;-74
2022/06/07 11:52:27;;;;;;;2.25;2.12;;;;;;;23.65;65.24;100399.06;5232049;56;1141041;-72
2022/06/07 11:57:42;;;;;;;2.77;2.42;;;;;;;23.54;64.87;100396.95;5244524;56;1139021;-73
2022/06/07 12:03:10;;;;;;;5.28;2.90;;;;;;;23.47;65.74;100405.86;5244740;56;1139024;-74
2022/06/07 12:08:51;;;;;;;4.55;2.35;;;;;;;23.33;66.96;100405.53;5244597;56;1138482;-73
2022/06/07 12:14:36;;;;;;;5.35;3.27;;;;;;;23.27;66.57;100403.63;4991218;59;1139196;-73
2022/06/07 12:19:46;;;;;;;2.83;2.62;;;;;;;23.20;67.85;100398.75;4991649;59;1139113;-74
2022/06/07 12:24:59;;;;;;;4.12;2.17;;;;;;;23.15;67.63;100392.61;4971315;59;1139078;-73
2022/06/07 12:30:29;;;;;;;2.33;2.22;;;;;;;23.15;67.63;100392.61;4962565;59;1137143;-73
2022/06/07 12:35:35;;;;;;;2.45;2.05;;;;;;;23.21;67.82;100382.88;4962099;58;1136921;-73
2022/06/07 12:40:54;;;;;;;11.25;2.60;;;;;;;23.35;67.79;100368.89;4961620;58;1137157;-75
2022/06/07 12:46:09;;;;;;;2.75;2.47;;;;;;;23.37;66.75;100363.61;4886912;58;1139113;-74
2022/06/07 12:51:36;;;;;;;2.40;2.20;;;;;;;23.36;66.98;100359.24;5249426;56;1136880;-74
2022/06/07 12:56:44;;;;;;;2.05;1.85;;;;;;;23.38;66.39;100361.19;5195764;56;1138347;-74
2022/06/07 13:01:51;;;;;;;2.45;2.30;;;;;;;23.40;64.60;100365.03;5242778;56;1138891;-74
2022/06/07 13:07:16;;;;;;;3.50;2.27;;;;;;;23.30;64.86;100361.40;5191491;56;1139171;-75
2022/06/07 13:12:34;;;;;;;2.12;2.02;;;;;;;23.31;64.75;100372.52;5143062;56;1139035;-74
2022/06/07 13:17:45;;;;;;;2.65;2.45;;;;;;;23.37;65.00;100365.47;5130845;56;1138995;-74
2022/06/07 13:22:50;;;;;;;5.25;1.82;;;;;;;23.36;64.65;100370.55;5200325;56;1139006;-74
2022/06/07 13:28:20;;;;;;;1.80;1.57;;;;;;;23.30;63.78;100372.20;5169538;57;1139090;-74
2022/06/07 13:33:33;;;;;;;2.30;1.98;;;;;;;23.25;64.28;100371.97;5074546;57;1138938;-74
2022/06/07 13:38:46;;;;;;;2.35;2.25;;;;;;;23.23;64.38;100367.81;5058625;57;1138963;-73
2022/06/07 13:44:09;;;;;;;2.80;2.60;;;;;;;23.22;64.80;100370.22;5062881;57;1138982;-74
2022/06/07 13:54:52;;;;;;;2.95;2.50;;;;;;;23.17;65.57;100371.34;5069464;57;976577;-73
2022/06/07 13:59:58;;;;;;;4.17;3.22;;;;;;;23.18;66.02;100368.45;5104617;56;1137081;-73
2022/06/07 14:05:05;;;;;;;3.80;3.30;;;;;;;23.11;66.03;100368.94;5178092;56;1138999;-73
2022/06/07 14:10:15;;;;;;;7.53;4.95;;;;;;;23.03;66.72;100367.27;5122429;56;1139024;-72
2022/06/07 14:15:21;;;;;;;10.25;3.62;;;;;;;22.94;67.51;100376.56;5078063;57;1136958;-72
2022/06/07 14:20:28;;;;;;;9.53;3.47;;;;;;;22.81;68.54;100376.52;5095720;57;1139142;-72
2022/06/07 14:25:34;;;;;;;6.08;3.95;;;;;;;22.71;69.15;100372.84;5160372;57;1137155;-72
2022/06/07 14:30:40;;;;;;;7.20;3.45;;;;;;;22.65;70.06;100366.05;5119318;57;1137135;-73
2022/06/07 14:35:47;;;;;;;4.83;3.65;;;;;;;22.60;69.99;100367.19;5155071;57;1136908;-72
2022/06/07 14:40:53;;;;;;;5.62;3.65;;;;;;;22.53;70.86;100362.27;5160558;57;1137171;-72
2022/06/07 14:46:18;;;;;;;8.55;4.45;;;;;;;22.52;72.27;100370.05;5160453;57;1136871;-73
2022/06/07 14:51:28;;;;;;;5.53;3.87;;;;;;;22.50;72.97;100363.50;5160477;57;1137025;-73
2022/06/07 14:56:37;;;;;;;3.60;3.25;;;;;;;22.38;73.40;100369.15;5159498;57;1136888;-72
2022/06/07 15:01:57;;;;;;;3.45;3.17;;;;;;;22.19;74.54;100373.39;5160446;57;1136883;-72
2022/06/07 15:07:09;;;;;;;3.45;3.15;;;;;;;22.01;75.52;100371.70;5160437;57;1134235;-72
2022/06/07 15:12:16;;;;;;;6.03;3.70;;;;;;;21.92;76.11;100373.70;5108910;57;1138948;-73
2022/06/07 15:17:37;;;;;;;4.72;3.65;;;;;;;21.80;76.87;100371.74;5159957;57;1139174;-72
2022/06/07 15:22:43;;;;;;;4.87;2.85;;;;;;;21.78;78.42;100377.83;5067456;58;1139627;-72
2022/06/07 15:27:49;;;;;;;6.85;4.15;;;;;;;21.51;81.17;100390.23;5000898;57;1139012;-72
2022/06/07 15:32:58;;;;;;;8.80;6.40;;;;;;;21.12;81.63;100396.00;5084693;57;1139226;-72
2022/06/07 15:38:06;;;;;;;2.92;2.72;;;;;;;20.85;82.26;100396.22;5137882;57;1138974;-71
2022/06/07 15:43:16;;;;;;;3.65;3.10;;;;;;;20.60;82.94;100398.40;5103663;57;1139000;-72
2022/06/07 15:48:32;;;;;;;5.35;2.20;;;;;;;20.40;83.11;100393.26;5138013;57;1139007;-72
2022/06/07 15:53:35;;;;;;;2.85;2.58;;;;;;;20.23;83.34;100394.75;5136790;57;1139223;-72
2022/06/07 16:04:07;;;;;;;2.33;2.15;;;;;;;20.00;84.78;100394.00;4993417;59;1139021;-72
2022/06/07 16:09:15;;;;;;;6.28;3.20;;;;;;;19.93;85.46;100385.00;4993081;58;1139014;-73
2022/06/07 16:14:21;;;;;;;4.05;2.77;;;;;;;19.92;85.67;100384.16;4993171;59;1139011;-72
2022/06/07 16:19:27;;;;;;;4.70;2.47;;;;;;;19.93;85.66;100383.14;4993007;58;1139010;-72
2022/06/07 16:24:36;;;;;;;2.37;2.17;;;;;;;19.97;85.92;100381.77;5066925;57;1139101;-72
2022/06/07 16:35:06;;;;;;;3.58;3.20;;;;;;;19.91;86.24;100375.78;5161890;57;1139321;-72
2022/06/07 16:40:12;;;;;;;4.30;3.02;;;;;;;19.92;86.40;100375.27;5104547;57;1139072;-72
2022/06/07 16:45:18;;;;;;;4.10;3.33;;;;;;;19.92;86.62;100372.08;5245014;56;1139289;-72
2022/06/07 16:50:24;;;;;;;11.80;8.80;;;;;;;19.97;86.97;100377.74;5245057;56;1138970;-70
2022/06/07 16:55:30;;;;;;;8.00;4.47;;;;;;;19.90;87.49;100384.02;5228508;56;1141130;-71
2022/06/07 17:00:35;;;;;;;4.70;4.30;;;;;;;19.80;88.10;100387.47;5158373;57;1139048;-72
2022/06/07 17:05:42;;;;;;;5.08;4.00;;;;;;;19.74;89.03;100397.07;5158429;57;1138307;-73
2022/06/07 17:10:48;;;;;;;6.33;3.45;;;;;;;19.56;90.06;100396.05;5158376;57;1138977;-72
2022/06/07 17:15:57;;;;;;;6.80;3.72;;;;;;;19.47;90.66;100396.27;5159301;56;1136703;-74
2022/06/07 17:21:03;;;;;;;4.30;4.00;;;;;;;19.46;91.39;100401.30;5158465;56;1136864;-72
2022/06/07 17:26:15;;;;;;;4.22;3.83;;;;;;;19.44;91.93;100405.50;5152726;57;1136968;-73
2022/06/07 17:31:21;;;;;;;6.95;4.60;;;;;;;19.42;92.24;100396.80;5138285;57;1136859;-73
2022/06/07 17:36:27;;;;;;;10.18;5.10;;;;;;;19.36;92.95;100395.35;5133788;57;1136938;-73
2022/06/07 17:41:33;;;;;;;7.75;5.22;;;;;;;19.27;93.67;100393.22;5133612;57;1139010;-72
2022/06/07 17:46:40;;;;;;;6.95;4.75;;;;;;;19.22;93.89;100391.09;5238298;56;1136920;-72
2022/06/07 17:51:46;;;;;;;7.45;5.40;;;;;;;19.19;94.43;100391.44;5251912;56;1136980;-71
2022/06/07 17:56:52;;;;;;;6.58;5.40;;;;;;;19.16;95.08;100388.27;5148472;56;1137109;-70
2022/06/07 18:01:58;;;;;;;7.33;6.60;;;;;;;19.13;95.31;100387.28;5080920;58;1137002;-70
2022/06/07 18:07:04;;;;;;;7.45;4.85;;;;;;;19.11;95.60;100387.95;5081226;58;1136916;-70
2022/06/07 18:12:10;;;;;;;4.70;4.20;;;;;;;19.15;95.93;100383.92;5047875;58;1137163;-71
2022/06/07 18:17:15;;;;;;;11.33;5.47;;;;;;;19.25;96.20;100377.81;5099321;57;1136412;-69
2022/06/07 18:22:25;;;;;;;11.88;7.10;;;;;;;19.32;96.05;100370.73;5158295;57;1139069;-72
2022/06/07 18:27:34;;;;;;;16.00;8.53;;;;;;;19.38;96.24;100372.70;5185424;56;1139105;-72
2022/06/07 18:32:40;;;;;;;6.95;5.87;;;;;;;19.46;96.63;100358.38;5046399;58;1136893;-71
2022/06/07 18:37:46;;;;;;;6.50;5.70;;;;;;;19.51;96.28;100364.92;5046712;58;1134892;-70
2022/06/07 18:42:52;;;;;;;7.85;6.10;;;;;;;19.58;96.24;100364.51;5047949;58;1139328;-72
2022/06/07 18:47:58;;;;;;;12.03;6.37;;;;;;;19.53;95.75;100375.47;4982702;57;1139239;-72
2022/06/07 18:53:10;;;;;;;8.20;6.57;;;;;;;19.38;95.91;100382.09;5119921;57;1141143;-69
2022/06/07 18:58:13;;;;;;;16.62;10.30;;;;;;;19.22;96.30;100380.88;5077646;57;1139037;-73
2022/06/07 19:03:20;;;;;;;10.65;7.22;;;;;;;19.14;97.17;100379.57;5103920;57;1143366;-72
2022/06/07 19:08:26;;;;;;;9.78;7.35;;;;;;;19.18;97.94;100380.38;5106226;57;1140710;-73
2022/06/07 19:13:32;;;;;;;7.05;6.35;;;;;;;19.10;98.27;100365.67;5087465;57;1138934;-71
2022/06/07 19:18:38;;;;;;;7.92;6.72;;;;;;;19.11;98.65;100374.05;5100917;57;1139003;-72
2022/06/07 19:23:43;;;;;;;14.95;10.75;;;;;;;19.07;98.35;100380.80;5149299;57;1138979;-71
2022/06/07 19:28:49;;;;;;;13.62;9.65;;;;;;;19.12;98.67;100388.29;5083459;57;1142666;-72
2022/06/07 19:33:56;;;;;;;12.07;8.28;;;;;;;19.06;97.88;100389.02;5108738;57;1141440;-69
2022/06/07 19:39:02;;;;;;;15.72;11.03;;;;;;;18.97;98.18;100395.75;5113134;57;1141112;-68
2022/06/07 19:44:08;;;;;;;10.50;8.28;;;;;;;18.91;98.81;100387.09;5161258;57;1143160;-71
2022/06/07 19:49:13;;;;;;;12.37;9.78;;;;;;;18.95;99.07;100388.39;5161389;56;1141024;-72
2022/06/07 19:54:19;;;;;;;10.58;8.40;;;;;;;18.84;98.49;100388.79;5161271;57;1140995;-71
2022/06/07 19:59:24;;;;;;;8.20;6.87;;;;;;;18.83;98.97;100390.30;5159682;57;1141102;-73
2022/06/07 20:04:32;;;;;;;19.00;14.23;;;;;;;18.79;98.89;100383.11;5132090;56;1138947;-74
2022/06/07 20:09:37;;;;;;;35.30;23.80;;;;;;;18.82;99.18;100382.77;5119196;57;1143130;-70
2022/06/07 20:14:43;;;;;;;11.05;8.65;;;;;;;18.81;99.61;100371.72;5115062;56;1143122;-69
2022/06/07 20:19:49;;;;;;;11.97;7.42;;;;;;;18.73;99.18;100376.30;5116404;57;1140639;-72
2022/06/07 20:24:54;;;;;;;8.35;7.22;;;;;;;18.58;99.68;100376.17;5088934;57;1141183;-70
2022/06/07 20:30:00;;;;;;;8.63;7.45;;;;;;;18.46;99.68;100376.22;5111211;56;1139128;-72
2022/06/07 20:35:08;;;;;;;8.90;7.37;;;;;;;18.36;100.00;100375.06;5120813;56;1139216;-72
2022/06/07 20:40:18;;;;;;;10.45;8.85;;;;;;;18.30;100.00;100362.39;5091926;56;1141040;-70
2022/06/07 20:45:24;;;;;;;8.00;7.10;;;;;;;18.15;100.00;100366.28;5120551;56;1142598;-70
2022/06/07 20:50:30;;;;;;;14.68;7.30;;;;;;;18.06;100.00;100359.27;5093791;56;1141090;-70
2022/06/07 20:55:39;;;;;;;9.43;7.87;;;;;;;17.97;100.00;100356.29;5118583;56;1143204;-71
2022/06/07 21:00:46;;;;;;;8.45;7.17;;;;;;;17.88;100.00;100359.97;5051736;57;1141110;-71
2022/06/07 21:05:52;;;;;;;10.15;9.18;;;;;;;17.78;100.00;100360.66;5157491;56;1141312;-72
2022/06/07 21:10:58;;;;;;;10.32;8.00;;;;;;;17.67;100.00;100360.52;5227865;56;1143147;-69
2022/06/07 21:16:03;;;;;;;11.20;9.77;;;;;;;17.64;100.00;100358.17;5227533;56;1143128;-71
2022/06/07 21:21:10;;;;;;;11.85;8.93;;;;;;;17.62;100.00;100356.63;5224233;56;1142692;-70
2022/06/07 21:26:18;;;;;;;10.40;8.77;;;;;;;17.59;100.00;100352.45;5219465;56;1143360;-69
2022/06/07 21:31:25;;;;;;;9.27;8.33;;;;;;;17.55;100.00;100349.80;5162053;56;1143408;-72
2022/06/07 21:36:31;;;;;;;9.33;8.07;;;;;;;17.51;100.00;100350.62;5131381;57;1141012;-71
2022/06/07 21:41:40;;;;;;;12.65;8.60;;;;;;;17.54;100.00;100346.29;5131624;57;1141051;-72
2022/06/07 21:46:46;;;;;;;12.63;8.93;;;;;;;17.50;100.00;100354.80;5211768;56;1143092;-72
2022/06/07 21:51:54;;;;;;;10.53;9.23;;;;;;;17.46;100.00;100357.47;5217364;56;1141136;-71
2022/06/07 21:57:02;;;;;;;11.97;9.27;;;;;;;17.36;100.00;100357.65;5190795;56;1141079;-71
2022/06/07 22:02:09;;;;;;;11.77;8.00;;;;;;;17.32;100.00;100354.12;5157638;56;1140397;-69
2022/06/07 22:07:15;;;;;;;9.80;8.77;;;;;;;17.33;100.00;100348.62;5097766;57;1141241;-71
2022/06/07 22:12:21;;;;;;;11.70;8.50;;;;;;;17.32;100.00;100350.95;5131695;56;1138994;-71
2022/06/07 22:17:35;;;;;;;12.00;8.77;;;;;;;17.36;100.00;100348.80;5133679;56;1141203;-73
2022/06/07 22:22:38;;;;;;;12.20;8.70;;;;;;;17.37;100.00;100339.27;5181974;56;1141056;-72
2022/06/07 22:27:44;;;;;;;12.37;8.97;;;;;;;17.35;100.00;100341.27;5216410;56;1141094;-72
2022/06/07 22:32:50;;;;;;;9.23;8.33;;;;;;;17.30;100.00;100343.60;5185260;56;1141400;-71
2022/06/07 22:37:59;;;;;;;14.23;9.17;;;;;;;17.27;100.00;100339.08;5129143;57;1138953;-69
2022/06/07 22:43:06;;;;;;;9.93;8.57;;;;;;;17.23;100.00;100321.23;5146178;56;1141177;-72
2022/06/07 22:48:12;;;;;;;12.00;9.47;;;;;;;17.21;100.00;100318.72;5214811;56;1138976;-70
2022/06/07 22:53:25;;;;;;;12.43;9.50;;;;;;;17.18;100.00;100326.22;5214770;56;1141062;-72
2022/06/07 22:58:44;;;;;;;11.83;9.10;;;;;;;17.08;100.00;100322.39;5159569;56;1141009;-69
2022/06/07 23:04:00;;;;;;;15.03;13.53;;;;;;;17.04;100.00;100317.53;5128252;57;1143113;-70
2022/06/07 23:09:06;;;;;;;21.23;14.20;;;;;;;17.08;100.00;100316.20;5072205;58;1145672;-70
2022/06/07 23:19:35;;;;;;;;;;;;;;;17.16;100.00;100307.68;5113726;57;1145390;-72
2022/06/07 23:24:40;;;;;;;12.13;9.30;;;;;;;17.21;100.00;100312.53;5153960;57;978612;-71
2022/06/07 23:29:46;;;;;;;9.93;8.93;;;;;;;17.22;100.00;100302.18;5151251;57;1141493;-69
2022/06/07 23:34:52;;;;;;;10.10;9.13;;;;;;;17.19;100.00;100311.36;5156148;57;1141184;-70
2022/06/07 23:39:58;;;;;;;13.67;9.27;;;;;;;17.10;100.00;100313.71;5150983;57;1143243;-69
2022/06/07 23:45:06;;;;;;;11.43;8.70;;;;;;;17.04;100.00;100310.35;5156527;57;1143648;-69
2022/06/07 23:50:22;;;;;;;10.43;9.20;;;;;;;17.01;100.00;100310.67;5158885;57;1143077;-71